Piney, Arkansas
Current Conditions -  °F | °C
As of 12:53 PM on Thursday 23 Oct 2014 (Local Time) from KHOT Reporting Station
Clear Clear  
Wind Chill: 16°   Ceiling: Unl
Heat Index: 16°   Visibility: 10mi
Dew Point:   Wind: 5mph
Humidity: 64%   Direction: 330°NNW
Pressure: 30.19"   Gusts: NA
Location:  34.5331°N, 93.0035°W
Report Text: KHOT 231753Z AUTO 33004KT 10SM CLR 16/09 A3019 RMK AO2 SLP222 T01610094 10161 20100 58008
Loading
Personal Weather Stations






























Interactive Weather Map
Tropical Storm Tracking
New forecast layout! Learn more

10-Day Weather Forecast

Advertisements
Track Severe Weather on mobile